Time;durP1;ratioP1;P1;durP2;ratioP2;P2;SDS_P1;SDS_P2;PMS_P1;PMS_P2;Temp;Humidity;BMP_temperature;BMP_pressure;BME280_temperature;BME280_humidity;BME280_pressure;Samples;Min_cycle;Max_cycle;Signal;HPM_P1;HPM_P2
2020/12/13 00:02:13;;;;;;;8.95;4.05;;;8.10;92.10;;;;;;5026196;28;20030;-57
2020/12/13 00:04:39;;;;;;;5.55;3.55;;;8.10;92.10;;;;;;5007629;28;20081;-57
2020/12/13 00:07:06;;;;;;;9.80;4.50;;;8.10;92.10;;;;;;5005732;28;20544;-56
2020/12/13 00:09:31;;;;;;;5.32;3.50;;;8.10;92.10;;;;;;5004385;28;20044;-57
2020/12/13 00:11:57;;;;;;;5.93;3.40;;;8.10;92.10;;;;;;5009396;28;20454;-58
2020/12/13 00:14:22;;;;;;;10.50;3.95;;;8.10;92.30;;;;;;5007026;28;20378;-58
2020/12/13 00:16:52;;;;;;;5.97;3.58;;;8.10;92.30;;;;;;5009084;28;20060;-56
2020/12/13 00:19:17;;;;;;;7.53;4.10;;;8.10;92.30;;;;;;5003139;28;20544;-57
2020/12/13 00:21:43;;;;;;;8.85;4.07;;;8.10;92.30;;;;;;4988811;28;20117;-57
2020/12/13 00:24:08;;;;;;;4.90;3.15;;;8.10;92.30;;;;;;5006327;28;20025;-57
2020/12/13 00:26:34;;;;;;;4.93;3.30;;;8.10;92.30;;;;;;5009984;28;20084;-56
2020/12/13 00:28:59;;;;;;;5.05;3.88;;;8.10;92.20;;;;;;5009066;28;20068;-56
2020/12/13 00:31:25;;;;;;;4.70;3.40;;;8.10;92.20;;;;;;5004605;28;20030;-57
2020/12/13 00:33:50;;;;;;;10.20;4.20;;;8.10;92.20;;;;;;4994808;28;20030;-57
2020/12/13 00:36:19;;;;;;;6.32;3.60;;;8.00;92.20;;;;;;4994883;28;20049;-57
2020/12/13 00:38:44;;;;;;;8.10;3.78;;;8.00;92.20;;;;;;5012007;28;20148;-56
2020/12/13 00:41:10;;;;;;;4.70;3.28;;;8.00;92.20;;;;;;4993231;28;20039;-57
2020/12/13 00:43:36;;;;;;;5.57;3.55;;;8.00;92.20;;;;;;5011652;28;20485;-56
2020/12/13 00:46:01;;;;;;;6.43;3.88;;;8.10;92.30;;;;;;5007225;28;20030;-57
2020/12/13 00:48:27;;;;;;;4.05;2.95;;;8.00;92.30;;;;;;5008142;28;20046;-57
2020/12/13 00:50:52;;;;;;;6.13;3.80;;;8.00;92.30;;;;;;5022928;28;20030;-57
2020/12/13 00:53:18;;;;;;;8.48;3.75;;;8.00;92.30;;;;;;5010169;28;20024;-57
2020/12/13 00:55:46;;;;;;;10.02;3.60;;;8.00;92.30;;;;;;5007592;28;20107;-56
2020/12/13 00:58:12;;;;;;;7.70;3.42;;;8.00;92.30;;;;;;5005463;28;20433;-57
2020/12/13 01:00:38;;;;;;;5.32;3.15;;;8.00;92.30;;;;;;5004885;28;20042;-57
2020/12/13 01:03:03;;;;;;;5.93;3.30;;;8.00;92.40;;;;;;5023973;28;20164;-57
2020/12/13 01:05:29;;;;;;;4.85;3.08;;;8.00;92.30;;;;;;5010031;28;20038;-57
2020/12/13 01:07:55;;;;;;;5.18;3.17;;;8.00;92.40;;;;;;5008291;28;20160;-57
2020/12/13 01:10:20;;;;;;;6.47;3.38;;;8.00;92.30;;;;;;5010526;28;20489;-56
2020/12/13 01:12:46;;;;;;;5.72;2.92;;;8.00;92.30;;;;;;4993699;28;20773;-57
2020/12/13 01:15:11;;;;;;;5.72;3.30;;;8.00;92.30;;;;;;5005495;28;20032;-57
2020/12/13 01:17:37;;;;;;;6.45;3.03;;;8.00;92.40;;;;;;5005243;28;20030;-58
2020/12/13 01:20:04;;;;;;;5.38;3.08;;;8.00;92.40;;;;;;5006248;28;20500;-58
2020/12/13 01:22:29;;;;;;;4.35;2.92;;;8.00;92.40;;;;;;4990405;28;20466;-57
2020/12/13 01:24:55;;;;;;;6.95;3.03;;;8.00;92.40;;;;;;4988536;28;20049;-57
2020/12/13 01:27:20;;;;;;;4.03;2.97;;;8.00;92.40;;;;;;5010229;28;20525;-58
2020/12/13 01:29:46;;;;;;;4.63;2.83;;;8.00;92.40;;;;;;5006920;28;20030;-57
2020/12/13 01:32:12;;;;;;;5.07;2.75;;;7.90;92.40;;;;;;5004092;28;20409;-58
2020/12/13 01:34:37;;;;;;;5.07;3.40;;;8.00;92.40;;;;;;5007820;28;20026;-58
2020/12/13 01:37:02;;;;;;;6.20;2.95;;;7.90;92.40;;;;;;5006076;28;20045;-56
2020/12/13 01:39:29;;;;;;;5.40;3.20;;;7.90;92.40;;;;;;5005514;28;20509;-57
2020/12/13 01:41:58;;;;;;;5.38;2.92;;;7.90;92.40;;;;;;5008318;28;20046;-58
2020/12/13 01:44:35;;;;;;;3.90;2.72;;;7.90;92.40;;;;;;5023930;28;20162;-58
2020/12/13 01:47:01;;;;;;;4.90;2.50;;;7.90;92.50;;;;;;5008883;28;20045;-58
2020/12/13 01:49:34;;;;;;;4.65;2.90;;;7.90;92.40;;;;;;5022721;28;20089;-57
2020/12/13 01:55:07;;;;;;;4.93;2.92;;;7.90;92.40;;;;;;4970586;28;20041;-57
2020/12/13 01:57:37;;;;;;;5.50;2.92;;;7.90;92.30;;;;;;4997323;28;20057;-57
2020/12/13 02:00:11;;;;;;;7.28;3.10;;;7.90;92.30;;;;;;4988707;28;20095;-58
2020/12/13 02:02:52;;;;;;;3.95;2.63;;;7.90;92.30;;;;;;4986189;28;20040;-57
2020/12/13 02:05:17;;;;;;;4.15;2.40;;;7.90;92.30;;;;;;5002057;28;20390;-57
2020/12/13 02:07:43;;;;;;;4.50;2.55;;;7.90;92.30;;;;;;5001854;28;20030;-56
2020/12/13 02:10:09;;;;;;;5.25;2.80;;;7.90;92.30;;;;;;5004530;28;20030;-57
2020/12/13 02:12:35;;;;;;;4.68;2.95;;;7.90;92.30;;;;;;4991995;28;20030;-57
2020/12/13 02:15:00;;;;;;;5.82;2.95;;;7.90;92.30;;;;;;5008205;28;20033;-57
2020/12/13 02:17:26;;;;;;;3.63;2.80;;;7.90;92.30;;;;;;5004310;28;20080;-58
2020/12/13 02:19:52;;;;;;;6.30;3.10;;;7.90;92.30;;;;;;4984371;28;20061;-58
2020/12/13 02:22:19;;;;;;;4.10;2.80;;;7.80;92.30;;;;;;4995512;28;20029;-57
2020/12/13 02:24:44;;;;;;;4.78;2.58;;;7.90;92.30;;;;;;5004676;28;20034;-56
2020/12/13 02:27:10;;;;;;;6.38;2.70;;;7.90;92.30;;;;;;4988765;28;20033;-58
2020/12/13 02:29:35;;;;;;;4.32;2.58;;;7.80;92.30;;;;;;5012894;28;20036;-57
2020/12/13 02:32:02;;;;;;;6.00;2.72;;;7.90;92.30;;;;;;5002927;28;20041;-57
2020/12/13 02:34:28;;;;;;;4.38;2.70;;;7.90;92.40;;;;;;5005671;28;20033;-57
2020/12/13 02:36:53;;;;;;;3.63;2.47;;;7.90;92.30;;;;;;5004416;28;20038;-56
2020/12/13 02:39:19;;;;;;;4.22;2.60;;;7.80;92.30;;;;;;4996171;28;20034;-57
2020/12/13 02:41:57;;;;;;;3.90;2.50;;;7.80;92.30;;;;;;5010104;28;20223;-57
2020/12/13 02:44:25;;;;;;;3.80;2.33;;;7.80;92.30;;;;;;5004821;28;20768;-57
2020/12/13 02:46:51;;;;;;;3.47;2.20;;;7.80;92.30;;;;;;5006612;28;20116;-56
2020/12/13 02:49:16;;;;;;;4.70;2.55;;;7.80;92.30;;;;;;5011782;28;20434;-57
2020/12/13 02:51:42;;;;;;;4.00;2.42;;;7.80;92.30;;;;;;5020941;28;20038;-57
2020/12/13 02:54:07;;;;;;;4.30;2.55;;;7.80;92.30;;;;;;5010706;28;20022;-57
2020/12/13 02:56:33;;;;;;;3.83;2.58;;;7.80;92.40;;;;;;4996914;28;20096;-57
2020/12/13 02:58:58;;;;;;;5.25;2.72;;;7.80;92.30;;;;;;4996133;28;20106;-57
2020/12/13 03:01:27;;;;;;;3.28;2.40;;;7.80;92.30;;;;;;4996134;28;20152;-58
2020/12/13 03:03:52;;;;;;;4.35;2.67;;;7.80;92.30;;;;;;5026555;28;20037;-56
2020/12/13 03:06:18;;;;;;;4.03;2.10;;;7.80;92.30;;;;;;5002585;28;20113;-57
2020/12/13 03:08:43;;;;;;;3.25;2.10;;;7.80;92.30;;;;;;4979572;28;20037;-57
2020/12/13 03:11:09;;;;;;;6.43;2.95;;;7.80;92.30;;;;;;5011160;28;20037;-57
2020/12/13 03:13:34;;;;;;;3.42;2.20;;;7.80;92.30;;;;;;5007962;28;20108;-56
2020/12/13 03:16:00;;;;;;;3.10;2.00;;;7.80;92.30;;;;;;4997447;28;20030;-56
2020/12/13 03:18:25;;;;;;;3.40;2.53;;;7.80;92.30;;;;;;5014211;28;20545;-56
2020/12/13 03:20:51;;;;;;;3.28;2.10;;;7.70;92.30;;;;;;5017303;28;20033;-57
2020/12/13 03:23:16;;;;;;;4.82;2.33;;;7.80;92.30;;;;;;5027433;28;20358;-57
2020/12/13 03:25:43;;;;;;;3.58;2.17;;;7.80;92.30;;;;;;5035335;28;20117;-57
2020/12/13 03:28:08;;;;;;;2.85;1.88;;;7.80;92.30;;;;;;5014416;28;20029;-57
2020/12/13 03:30:34;;;;;;;4.20;2.00;;;7.80;92.30;;;;;;5017860;28;20034;-57
2020/12/13 03:32:59;;;;;;;2.80;2.10;;;7.80;92.30;;;;;;5019105;28;20029;-57
2020/12/13 03:35:25;;;;;;;2.88;2.15;;;7.70;92.30;;;;;;5013757;28;20061;-58
2020/12/13 03:37:50;;;;;;;3.28;2.30;;;7.80;92.30;;;;;;5010541;28;20481;-57
2020/12/13 03:40:16;;;;;;;3.17;2.40;;;7.70;92.30;;;;;;5017907;28;20026;-57
2020/12/13 03:42:41;;;;;;;3.05;2.15;;;7.80;92.40;;;;;;5029279;28;20025;-58
2020/12/13 03:45:07;;;;;;;3.10;2.00;;;7.70;92.30;;;;;;5015959;28;20036;-57
2020/12/13 03:47:33;;;;;;;3.72;2.10;;;7.70;92.30;;;;;;5044127;28;20025;-56
2020/12/13 03:49:58;;;;;;;3.63;2.28;;;7.70;92.30;;;;;;5012638;28;20452;-57
2020/12/13 03:52:24;;;;;;;3.53;2.25;;;7.70;92.40;;;;;;5023007;28;20034;-57
2020/12/13 03:54:49;;;;;;;4.45;2.50;;;7.70;92.40;;;;;;5014092;28;20030;-58
2020/12/13 03:57:15;;;;;;;3.40;2.05;;;7.70;92.40;;;;;;5030309;28;20030;-57
2020/12/13 03:59:40;;;;;;;3.00;2.03;;;7.70;92.40;;;;;;5018502;28;20033;-56
2020/12/13 04:02:06;;;;;;;3.42;1.98;;;7.70;92.40;;;;;;5025966;28;20033;-57
2020/12/13 04:04:32;;;;;;;4.20;2.38;;;7.70;92.40;;;;;;5006255;28;20056;-57
2020/12/13 04:06:57;;;;;;;2.92;2.15;;;7.70;92.40;;;;;;5014336;28;20410;-57
2020/12/13 04:09:23;;;;;;;3.67;2.30;;;7.70;92.40;;;;;;5014493;28;20104;-56
2020/12/13 04:11:49;;;;;;;4.00;2.10;;;7.70;92.40;;;;;;5012184;28;20026;-57
2020/12/13 04:14:14;;;;;;;3.35;1.90;;;7.70;92.40;;;;;;5022758;28;20057;-56
2020/12/13 04:16:40;;;;;;;3.28;2.20;;;7.70;92.40;;;;;;5011859;28;20417;-57
2020/12/13 04:19:06;;;;;;;2.42;1.80;;;7.70;92.40;;;;;;5024776;28;20033;-57
2020/12/13 04:21:31;;;;;;;4.13;2.00;;;7.70;92.40;;;;;;5026906;28;20052;-56
2020/12/13 04:23:57;;;;;;;4.55;2.25;;;7.70;92.40;;;;;;5009945;28;20034;-56
2020/12/13 04:26:22;;;;;;;2.55;1.75;;;7.70;92.40;;;;;;5009512;28;20046;-57
2020/12/13 04:28:48;;;;;;;3.28;1.98;;;7.70;92.40;;;;;;5017882;28;20073;-56
2020/12/13 04:31:13;;;;;;;2.75;1.90;;;7.70;92.40;;;;;;5003341;28;20030;-57
2020/12/13 04:33:39;;;;;;;2.85;2.05;;;7.70;92.40;;;;;;5012570;28;20046;-57
2020/12/13 04:36:05;;;;;;;3.63;1.67;;;7.60;92.40;;;;;;5019591;28;20036;-57
2020/12/13 04:38:31;;;;;;;3.10;1.73;;;7.70;92.50;;;;;;5012511;28;20026;-57
2020/12/13 04:40:58;;;;;;;5.05;2.17;;;7.70;92.40;;;;;;5013488;28;20083;-57
2020/12/13 04:43:23;;;;;;;2.47;1.70;;;7.60;92.40;;;;;;4992308;28;20038;-57
2020/12/13 04:45:49;;;;;;;2.65;1.83;;;7.70;92.40;;;;;;5009363;28;20021;-56
2020/12/13 04:48:14;;;;;;;2.40;1.60;;;7.70;92.40;;;;;;5011448;28;20440;-57
2020/12/13 04:50:40;;;;;;;2.90;1.80;;;7.60;92.40;;;;;;4992004;28;20037;-57
2020/12/13 04:53:07;;;;;;;3.55;1.85;;;7.60;92.40;;;;;;5006454;28;20057;-58
2020/12/13 04:55:51;;;;;;;3.45;2.13;;;7.60;92.40;;;;;;5010255;28;20026;-57
2020/12/13 04:58:16;;;;;;;2.83;1.70;;;7.70;92.40;;;;;;5021240;28;20026;-56
2020/12/13 05:00:42;;;;;;;3.08;1.63;;;7.60;92.40;;;;;;4991775;28;20155;-57
2020/12/13 05:03:15;;;;;;;2.35;1.50;;;7.60;92.50;;;;;;5009348;28;20061;-57
2020/12/13 05:05:41;;;;;;;2.95;1.55;;;7.60;92.40;;;;;;5010641;28;20040;-57
2020/12/13 05:08:06;;;;;;;1.88;1.60;;;7.60;92.50;;;;;;5007020;28;20034;-57
2020/12/13 05:10:37;;;;;;;2.60;1.70;;;7.60;92.50;;;;;;5006286;28;20026;-57
2020/12/13 05:13:03;;;;;;;2.65;1.90;;;7.60;92.40;;;;;;5009323;28;20109;-58
2020/12/13 05:15:29;;;;;;;2.53;1.58;;;7.60;92.50;;;;;;5010997;28;20148;-56
2020/12/13 05:17:55;;;;;;;2.85;1.85;;;7.60;92.50;;;;;;4992133;28;20030;-57
2020/12/13 05:20:20;;;;;;;2.13;1.70;;;7.60;92.50;;;;;;4987902;28;20097;-57
2020/12/13 05:22:46;;;;;;;2.25;1.50;;;7.60;92.50;;;;;;5004893;28;20041;-57
2020/12/13 05:25:12;;;;;;;3.25;1.80;;;7.60;92.50;;;;;;5008946;28;20363;-57
2020/12/13 05:27:39;;;;;;;2.72;1.60;;;7.60;92.40;;;;;;5005885;28;20030;-57
2020/12/13 05:30:05;;;;;;;2.58;1.63;;;7.60;92.40;;;;;;5006454;28;20464;-57
2020/12/13 05:32:30;;;;;;;1.80;1.50;;;7.60;92.50;;;;;;5009184;28;20109;-57
2020/12/13 05:34:56;;;;;;;1.90;1.50;;;7.60;92.60;;;;;;5006523;28;20042;-57
2020/12/13 05:37:21;;;;;;;2.35;1.65;;;7.60;92.50;;;;;;5008599;28;20030;-57
2020/12/13 05:39:51;;;;;;;2.30;1.67;;;7.60;92.50;;;;;;5009727;28;20021;-56
2020/12/13 05:42:31;;;;;;;3.08;1.50;;;7.60;92.50;;;;;;5024553;28;20021;-56
2020/12/13 05:45:12;;;;;;;2.08;1.75;;;7.60;92.50;;;;;;4991687;28;20501;-57
2020/12/13 05:53:05;;;;;;;2.10;1.40;;;7.60;92.50;;;;;;5006398;28;20458;-57
2020/12/13 05:55:31;;;;;;;2.03;1.42;;;7.60;92.50;;;;;;5007166;28;20105;-56
2020/12/13 05:57:56;;;;;;;1.63;1.35;;;7.60;92.80;;;;;;5008183;28;20385;-58
2020/12/13 06:00:22;;;;;;;2.63;1.60;;;7.60;92.50;;;;;;5006848;28;20042;-57
2020/12/13 06:02:49;;;;;;;2.70;1.60;;;7.60;92.50;;;;;;5022315;28;20022;-57
2020/12/13 06:05:15;;;;;;;2.78;1.42;;;7.60;92.50;;;;;;5010608;28;20057;-57
2020/12/13 06:07:49;;;;;;;1.90;1.50;;;7.60;92.60;;;;;;5011612;28;20486;-56
2020/12/13 06:10:24;;;;;;;1.25;1.15;;;7.60;92.60;;;;;;4997595;28;20064;-56
2020/12/13 06:13:03;;;;;;;2.15;1.30;;;7.50;92.60;;;;;;4986276;28;20121;-57
2020/12/13 06:15:30;;;;;;;1.90;1.30;;;7.60;92.60;;;;;;4986570;28;20473;-57
2020/12/13 06:17:56;;;;;;;2.78;1.50;;;7.60;92.60;;;;;;5006700;28;20493;-57
2020/12/13 06:20:22;;;;;;;1.42;1.33;;;7.60;92.60;;;;;;4987979;28;20018;-57
2020/12/13 06:22:49;;;;;;;1.67;1.10;;;7.60;92.60;;;;;;5013389;28;20022;-56
2020/12/13 06:25:14;;;;;;;1.90;1.20;;;7.50;92.60;;;;;;4990384;28;20022;-57
2020/12/13 06:27:40;;;;;;;1.27;1.15;;;7.60;92.60;;;;;;5004043;28;20135;-56
2020/12/13 06:30:09;;;;;;;2.20;1.42;;;7.60;92.70;;;;;;5024711;28;20100;-57
2020/12/13 06:32:39;;;;;;;1.92;1.33;;;7.60;92.70;;;;;;4992351;28;20058;-57
2020/12/13 06:35:04;;;;;;;1.98;1.30;;;7.60;92.70;;;;;;4990527;28;20045;-57
2020/12/13 06:37:30;;;;;;;24.27;2.22;;;7.60;92.70;;;;;;5006469;28;20030;-57
2020/12/13 06:39:55;;;;;;;20.90;2.00;;;7.60;92.70;;;;;;5012830;28;20157;-56
2020/12/13 06:42:27;;;;;;;15.88;2.20;;;7.60;92.60;;;;;;5001025;28;20492;-57
2020/12/13 06:45:04;;;;;;;20.15;3.00;;;7.50;92.60;;;;;;5018311;28;20488;-57
2020/12/13 06:47:30;;;;;;;13.57;2.60;;;7.60;92.60;;;;;;4974835;28;20034;-57
2020/12/13 06:49:55;;;;;;;29.63;2.97;;;7.60;92.60;;;;;;4989987;28;20164;-58
2020/12/13 06:52:34;;;;;;;24.52;3.05;;;7.60;92.70;;;;;;5004303;28;20485;-57
2020/12/13 06:55:06;;;;;;;18.88;2.38;;;7.60;92.70;;;;;;5015538;28;20018;-56
2020/12/13 06:57:35;;;;;;;12.85;2.22;;;7.60;92.70;;;;;;4994829;28;20081;-56
2020/12/13 07:00:07;;;;;;;22.08;2.63;;;7.60;92.70;;;;;;5008097;28;20045;-57
2020/12/13 07:02:46;;;;;;;11.48;2.05;;;7.70;92.70;;;;;;4988194;28;20024;-56
2020/12/13 07:05:12;;;;;;;13.70;2.63;;;7.60;92.70;;;;;;5005795;28;20068;-57
2020/12/13 07:07:38;;;;;;;21.13;2.05;;;7.60;92.70;;;;;;4982719;28;20036;-57
2020/12/13 07:10:06;;;;;;;8.57;2.13;;;7.60;92.80;;;;;;5017825;28;20022;-57
2020/12/13 07:12:31;;;;;;;13.43;2.35;;;7.70;92.80;;;;;;5006020;28;20025;-57
2020/12/13 07:14:57;;;;;;;10.15;2.50;;;7.70;92.80;;;;;;5009608;28;20022;-56
2020/12/13 07:17:23;;;;;;;10.63;3.13;;;7.60;92.70;;;;;;5005960;28;20033;-57
2020/12/13 07:19:48;;;;;;;14.82;2.10;;;7.70;92.70;;;;;;5021359;28;20069;-57
2020/12/13 07:22:14;;;;;;;13.18;3.03;;;7.70;92.70;;;;;;5007999;28;20057;-57
2020/12/13 07:24:40;;;;;;;17.58;2.42;;;7.70;92.80;;;;;;4993679;28;20038;-56
2020/12/13 07:27:06;;;;;;;12.07;2.22;;;7.70;92.80;;;;;;5006504;28;20033;-56
2020/12/13 07:29:32;;;;;;;15.52;2.72;;;7.70;92.90;;;;;;5006836;28;20026;-57
2020/12/13 07:31:58;;;;;;;13.70;2.70;;;7.70;93.00;;;;;;5004694;28;20104;-57
2020/12/13 07:34:24;;;;;;;9.32;2.20;;;7.70;93.00;;;;;;5015138;28;20494;-57
2020/12/13 07:36:49;;;;;;;14.05;2.58;;;7.70;93.00;;;;;;5008239;28;20031;-57
2020/12/13 07:39:15;;;;;;;10.38;2.15;;;7.70;92.90;;;;;;5009364;28;20029;-57
2020/12/13 07:41:41;;;;;;;17.67;3.17;;;7.70;92.90;;;;;;5010884;28;20033;-57
2020/12/13 07:44:08;;;;;;;17.38;2.00;;;7.70;92.90;;;;;;4993235;28;20033;-57
2020/12/13 07:46:34;;;;;;;17.63;2.60;;;7.70;92.90;;;;;;5009058;28;20485;-57
2020/12/13 07:49:03;;;;;;;14.27;2.53;;;7.60;92.90;;;;;;5009482;28;20072;-56
2020/12/13 07:51:29;;;;;;;9.73;2.28;;;7.70;92.90;;;;;;5010467;28;20093;-57
2020/12/13 07:53:55;;;;;;;12.63;2.20;;;7.70;92.80;;;;;;4992598;28;20037;-57
2020/12/13 07:56:27;;;;;;;10.63;2.10;;;7.70;92.80;;;;;;5009809;28;20033;-56
2020/12/13 07:59:12;;;;;;;7.90;2.47;;;7.70;92.80;;;;;;5011001;28;20041;-56
2020/12/13 08:01:39;;;;;;;7.30;2.38;;;7.70;92.80;;;;;;5002971;28;20305;-57
2020/12/13 08:04:04;;;;;;;9.55;2.05;;;7.70;92.80;;;;;;4992819;28;20033;-57
2020/12/13 08:06:30;;;;;;;5.72;2.03;;;7.70;93.00;;;;;;5011076;28;20080;-57
2020/12/13 08:08:55;;;;;;;8.38;2.20;;;7.70;93.00;;;;;;5010934;28;20109;-58
2020/12/13 08:11:21;;;;;;;4.53;2.35;;;7.70;93.10;;;;;;5008269;28;20042;-56
2020/12/13 08:13:55;;;;;;;7.97;2.38;;;7.80;93.10;;;;;;5016312;28;20029;-57
2020/12/13 08:16:24;;;;;;;10.20;2.20;;;7.70;93.00;;;;;;4997673;28;20064;-57
2020/12/13 08:18:52;;;;;;;8.20;2.10;;;7.70;93.00;;;;;;5008433;28;20540;-57
2020/12/13 08:21:41;;;;;;;6.40;2.20;;;7.80;93.10;;;;;;4991908;28;20026;-58
2020/12/13 08:24:07;;;;;;;4.32;2.28;;;7.80;93.10;;;;;;5005713;28;20137;-56
2020/12/13 08:26:34;;;;;;;6.93;2.67;;;7.80;93.10;;;;;;4989337;28;20152;-57
2020/12/13 08:29:00;;;;;;;13.88;2.63;;;7.80;93.20;;;;;;4993141;28;20022;-57
2020/12/13 08:31:28;;;;;;;23.00;3.28;;;7.80;93.20;;;;;;4984603;28;20505;-57
2020/12/13 08:34:04;;;;;;;16.58;3.95;;;7.80;93.20;;;;;;4993484;28;20030;-57
2020/12/13 08:36:30;;;;;;;14.63;3.15;;;7.80;93.20;;;;;;5012471;28;20045;-58
2020/12/13 08:39:03;;;;;;;12.75;2.90;;;7.80;93.20;;;;;;4993096;28;21474;-57
2020/12/13 08:41:28;;;;;;;6.40;2.60;;;7.80;93.20;;;;;;5011081;28;20101;-57
2020/12/13 08:43:54;;;;;;;8.88;2.58;;;7.80;93.10;;;;;;5010781;28;20430;-57
2020/12/13 08:46:32;;;;;;;5.25;2.22;;;7.80;93.10;;;;;;5010872;28;20104;-57
2020/12/13 08:48:57;;;;;;;12.70;2.45;;;7.80;93.10;;;;;;5025907;28;20033;-57
2020/12/13 08:51:26;;;;;;;4.57;2.22;;;7.80;93.10;;;;;;5009801;28;20414;-57
2020/12/13 08:54:02;;;;;;;8.85;2.70;;;7.80;93.10;;;;;;5006262;28;20038;-56
2020/12/13 08:56:50;;;;;;;7.22;3.53;;;7.80;93.10;;;;;;4994962;28;20034;-56
2020/12/13 08:59:18;;;;;;;8.48;3.67;;;7.90;93.10;;;;;;5010828;28;20079;-57
2020/12/13 09:01:51;;;;;;;8.15;3.10;;;7.90;93.10;;;;;;5004630;28;20504;-56
2020/12/13 09:04:17;;;;;;;16.45;3.67;;;7.90;93.10;;;;;;4994478;28;20549;-57
2020/12/13 09:06:51;;;;;;;18.90;3.70;;;7.80;93.20;;;;;;4991748;28;20042;-56
2020/12/13 09:09:16;;;;;;;11.05;3.38;;;7.90;93.20;;;;;;4993852;28;20029;-57
2020/12/13 09:11:42;;;;;;;10.13;3.53;;;7.90;93.20;;;;;;5009129;28;20382;-57
2020/12/13 09:14:07;;;;;;;18.42;4.15;;;7.90;93.20;;;;;;4994151;28;20034;-57
2020/12/13 09:16:33;;;;;;;12.35;3.85;;;7.90;93.10;;;;;;5006695;28;20044;-57
2020/12/13 09:19:12;;;;;;;22.17;4.18;;;7.90;93.10;;;;;;5005754;28;20033;-57
2020/12/13 09:21:42;;;;;;;6.07;3.25;;;7.90;93.10;;;;;;4993244;28;20038;-57
2020/12/13 09:24:07;;;;;;;20.92;4.20;;;7.90;93.00;;;;;;5010253;28;20034;-57
2020/12/13 09:26:33;;;;;;;11.40;4.03;;;7.90;93.00;;;;;;5006773;28;20077;-56
2020/12/13 09:28:58;;;;;;;14.52;4.38;;;7.90;93.00;;;;;;4982747;28;20041;-57
2020/12/13 09:31:24;;;;;;;16.65;4.05;;;7.90;93.00;;;;;;5008041;28;20060;-56
2020/12/13 09:33:49;;;;;;;14.27;3.90;;;7.90;93.00;;;;;;5006947;28;20042;-58
2020/12/13 09:36:15;;;;;;;22.48;3.83;;;7.90;92.90;;;;;;5011892;28;20486;-57
2020/12/13 09:38:40;;;;;;;15.90;3.25;;;7.90;92.90;;;;;;5013356;28;20072;-57
2020/12/13 09:41:06;;;;;;;22.75;3.40;;;8.00;93.00;;;;;;5022820;28;20049;-57
2020/12/13 09:43:31;;;;;;;17.55;3.58;;;8.00;92.90;;;;;;5009377;28;20050;-57
2020/12/13 09:45:57;;;;;;;15.90;3.70;;;8.00;92.90;;;;;;5006022;28;20405;-57
2020/12/13 09:48:22;;;;;;;20.70;4.63;;;8.00;92.90;;;;;;5009020;28;20062;-56
2020/12/13 09:50:48;;;;;;;13.77;4.10;;;8.00;92.90;;;;;;5006251;28;20087;-57
2020/12/13 09:53:13;;;;;;;14.10;4.75;;;8.00;92.90;;;;;;5004622;28;20026;-57
2020/12/13 09:55:39;;;;;;;11.45;3.60;;;8.00;92.90;;;;;;5009337;28;20054;-56
2020/12/13 09:58:05;;;;;;;9.15;4.15;;;8.00;92.80;;;;;;5007700;28;20068;-56
2020/12/13 10:00:30;;;;;;;15.25;5.25;;;8.00;92.80;;;;;;5004325;28;20026;-56
2020/12/13 10:02:56;;;;;;;11.88;4.90;;;8.00;92.80;;;;;;5010359;28;20128;-56
2020/12/13 10:05:35;;;;;;;10.73;4.80;;;8.00;92.90;;;;;;5007738;28;20427;-56
2020/12/13 10:10:46;;;;;;;9.25;4.90;;;8.00;92.80;;;;;;5004542;28;20024;-57
2020/12/13 10:13:11;;;;;;;13.63;4.70;;;8.00;92.80;;;;;;5010433;28;20042;-56
2020/12/13 10:15:37;;;;;;;10.73;5.10;;;8.10;92.80;;;;;;5010330;28;20029;-56
2020/12/13 10:18:03;;;;;;;11.63;4.68;;;8.00;92.80;;;;;;5010391;28;20034;-57
2020/12/13 10:20:29;;;;;;;11.82;5.10;;;8.00;92.80;;;;;;5006987;28;20153;-57
2020/12/13 10:22:54;;;;;;;12.57;4.50;;;8.00;92.80;;;;;;5022684;28;20046;-57
2020/12/13 10:25:22;;;;;;;9.90;4.30;;;8.10;92.80;;;;;;5008227;28;20143;-57
2020/12/13 10:27:47;;;;;;;13.55;3.88;;;8.10;92.80;;;;;;5022427;28;20030;-57
2020/12/13 10:30:13;;;;;;;8.18;4.13;;;8.10;92.80;;;;;;4999348;28;20022;-56
2020/12/13 10:32:38;;;;;;;14.90;4.00;;;8.10;92.80;;;;;;5004635;28;20470;-56
2020/12/13 10:35:04;;;;;;;4.85;3.38;;;8.10;93.10;;;;;;5007000;28;20144;-57
2020/12/13 10:37:29;;;;;;;9.40;3.53;;;8.10;92.80;;;;;;5003940;28;20531;-56
2020/12/13 10:39:55;;;;;;;10.63;3.53;;;8.10;92.70;;;;;;5008402;28;20310;-57
2020/12/13 10:42:20;;;;;;;8.27;3.55;;;8.10;92.80;;;;;;5018973;28;20446;-57
2020/12/13 10:44:46;;;;;;;5.22;3.42;;;8.10;92.80;;;;;;5017412;28;20057;-57
2020/12/13 10:47:12;;;;;;;5.15;2.97;;;8.10;92.70;;;;;;5007556;28;20034;-58
2020/12/13 10:49:40;;;;;;;4.15;2.95;;;8.20;92.70;;;;;;5002911;28;20100;-57
2020/12/13 10:52:05;;;;;;;6.78;3.05;;;8.20;92.70;;;;;;5005664;28;20116;-57
2020/12/13 10:54:31;;;;;;;5.25;2.92;;;8.20;92.70;;;;;;5008665;28;20106;-58
2020/12/13 10:56:57;;;;;;;6.53;2.85;;;8.20;92.70;;;;;;5003242;28;20477;-56
2020/12/13 10:59:22;;;;;;;7.93;3.22;;;8.20;92.80;;;;;;5000356;28;20045;-57
2020/12/13 11:01:48;;;;;;;4.45;2.80;;;8.20;92.70;;;;;;5014216;28;20396;-56
2020/12/13 11:04:16;;;;;;;5.88;2.53;;;8.20;92.70;;;;;;5003295;28;20030;-57
2020/12/13 11:06:42;;;;;;;6.63;2.90;;;8.20;92.70;;;;;;5007072;28;20042;-57
2020/12/13 11:09:09;;;;;;;4.88;2.70;;;8.20;92.70;;;;;;5026741;28;20033;-57
2020/12/13 11:11:35;;;;;;;3.88;2.40;;;8.20;92.70;;;;;;5011019;28;20026;-56
2020/12/13 11:14:00;;;;;;;5.75;2.35;;;8.20;92.70;;;;;;4993718;28;20041;-57
2020/12/13 11:16:26;;;;;;;7.22;2.60;;;8.20;92.70;;;;;;5010608;28;20480;-57
2020/12/13 11:18:51;;;;;;;2.72;2.25;;;8.20;92.70;;;;;;5005171;28;20470;-57
2020/12/13 11:21:17;;;;;;;3.97;2.45;;;8.20;92.70;;;;;;5010026;28;20018;-57
2020/12/13 11:23:42;;;;;;;8.48;2.58;;;8.20;92.60;;;;;;5008261;28;20553;-57
2020/12/13 11:26:08;;;;;;;7.18;2.38;;;8.20;92.70;;;;;;5009742;28;20109;-56
2020/12/13 11:28:33;;;;;;;3.85;2.22;;;8.20;92.70;;;;;;5008874;28;20049;-56
2020/12/13 11:30:59;;;;;;;5.35;2.20;;;8.20;92.70;;;;;;5004232;28;20048;-57
2020/12/13 11:33:24;;;;;;;5.43;2.42;;;8.20;92.70;;;;;;5011543;28;20049;-57
2020/12/13 11:35:50;;;;;;;9.30;2.55;;;8.20;92.70;;;;;;5011380;28;20124;-57
2020/12/13 11:38:17;;;;;;;16.15;2.90;;;8.20;92.70;;;;;;5008371;28;20034;-57
2020/12/13 11:40:42;;;;;;;10.95;2.70;;;8.20;92.60;;;;;;5008688;28;20221;-57
2020/12/13 11:43:08;;;;;;;6.55;3.03;;;8.20;92.60;;;;;;5026932;28;20056;-57
2020/12/13 11:45:33;;;;;;;7.95;2.63;;;8.20;92.60;;;;;;5009497;28;20034;-56
2020/12/13 11:48:01;;;;;;;4.15;2.30;;;8.30;92.50;;;;;;5016959;28;20036;-57
2020/12/13 11:50:26;;;;;;;10.35;2.53;;;8.30;92.50;;;;;;5008897;28;20020;-57
2020/12/13 11:52:52;;;;;;;11.20;2.40;;;8.30;92.40;;;;;;5023121;28;20034;-57
2020/12/13 11:55:17;;;;;;;12.15;2.53;;;8.30;92.40;;;;;;5009528;28;20064;-56
2020/12/13 11:57:43;;;;;;;24.98;4.30;;;8.30;92.40;;;;;;5007586;28;20029;-58
2020/12/13 12:00:08;;;;;;;16.17;3.28;;;8.30;92.30;;;;;;5009762;28;20478;-57
2020/12/13 12:02:34;;;;;;;16.65;3.05;;;8.30;92.30;;;;;;5010851;28;20462;-57
2020/12/13 12:04:59;;;;;;;11.75;3.08;;;8.40;92.30;;;;;;5028283;28;20049;-57
2020/12/13 12:07:25;;;;;;;12.77;2.30;;;8.40;92.30;;;;;;5007845;28;20050;-57
2020/12/13 12:09:50;;;;;;;9.30;3.00;;;8.40;92.30;;;;;;5008023;28;20060;-57
2020/12/13 12:12:16;;;;;;;20.88;3.42;;;8.40;92.40;;;;;;5009632;28;20033;-56
2020/12/13 12:14:42;;;;;;;17.63;3.20;;;8.40;92.30;;;;;;5009013;28;20050;-57
2020/12/13 12:17:07;;;;;;;16.70;3.33;;;8.40;92.30;;;;;;5010369;28;20029;-57
2020/12/13 12:19:37;;;;;;;17.98;3.10;;;8.40;92.20;;;;;;5009357;28;20025;-57
2020/12/13 12:22:03;;;;;;;16.85;3.20;;;8.50;92.20;;;;;;5011034;28;20041;-57
2020/12/13 12:24:29;;;;;;;22.05;4.20;;;8.50;92.20;;;;;;5007954;28;20488;-56
2020/12/13 12:26:55;;;;;;;15.77;3.60;;;8.50;92.20;;;;;;5022621;28;20508;-57
2020/12/13 12:29:20;;;;;;;20.15;3.95;;;8.50;92.10;;;;;;5008337;28;20034;-56
2020/12/13 12:31:47;;;;;;;46.92;5.22;;;8.50;92.10;;;;;;5006913;28;20171;-57
2020/12/13 12:34:13;;;;;;;36.58;5.32;;;8.50;92.10;;;;;;5006158;28;20030;-58
2020/12/13 12:36:38;;;;;;;33.33;5.65;;;8.50;92.10;;;;;;5008006;28;20516;-56
2020/12/13 12:39:05;;;;;;;36.67;4.78;;;8.50;92.10;;;;;;5012340;28;20044;-57
2020/12/13 12:41:31;;;;;;;27.75;3.85;;;8.50;92.10;;;;;;5012392;28;20551;-57
2020/12/13 12:43:56;;;;;;;24.95;4.75;;;8.60;92.10;;;;;;5008878;28;20109;-56
2020/12/13 12:46:22;;;;;;;69.03;7.53;;;8.60;92.10;;;;;;5007268;28;20056;-56
2020/12/13 12:48:47;;;;;;;37.58;5.20;;;8.60;92.00;;;;;;5008241;28;20513;-57
2020/12/13 12:51:14;;;;;;;87.68;9.35;;;8.60;92.10;;;;;;5024349;28;20025;-57
2020/12/13 12:53:39;;;;;;;75.03;8.50;;;8.60;92.10;;;;;;5019573;28;20604;-56
2020/12/13 12:56:07;;;;;;;36.88;6.15;;;8.60;92.10;;;;;;5006497;28;20132;-57
2020/12/13 12:58:41;;;;;;;36.03;4.70;;;8.60;92.00;;;;;;5007979;28;20117;-57
2020/12/13 13:01:10;;;;;;;51.88;5.18;;;8.60;92.00;;;;;;4990096;28;20129;-57
2020/12/13 13:03:35;;;;;;;34.15;5.47;;;8.60;92.00;;;;;;5024079;28;20034;-57